Time;durP1;ratioP1;P1;durP2;ratioP2;P2;SDS_P1;SDS_P2;PMS_P1;PMS_P2;Temp;Humidity;BMP_temperature;BMP_pressure;BME280_temperature;BME280_humidity;BME280_pressure;Samples;Min_cycle;Max_cycle;Signal;HPM_P1;HPM_P2
2021/01/12 00:00:14;;;;;;;18.03;10.90;;;5.10;99.90;;;;;;5012806;28;20926;-84
2021/01/12 00:02:40;;;;;;;16.60;10.17;;;5.10;99.90;;;;;;5012773;28;20997;-85
2021/01/12 00:05:07;;;;;;;14.60;9.87;;;5.20;99.90;;;;;;5012803;28;20521;-85
2021/01/12 00:07:32;;;;;;;14.50;12.07;;;5.20;99.90;;;;;;5012406;28;20302;-85
2021/01/12 00:09:58;;;;;;;14.83;10.30;;;5.20;99.90;;;;;;5012550;28;21271;-85
2021/01/12 00:12:24;;;;;;;18.80;11.87;;;5.20;99.90;;;;;;5012265;28;20639;-85
2021/01/12 00:14:49;;;;;;;14.53;10.47;;;5.30;99.90;;;;;;5009755;28;20232;-85
2021/01/12 00:17:16;;;;;;;14.53;9.23;;;5.30;99.90;;;;;;4995620;28;20207;-85
2021/01/12 00:19:42;;;;;;;15.20;10.77;;;5.30;99.90;;;;;;5012353;28;20953;-86
2021/01/12 00:22:15;;;;;;;13.80;10.23;;;5.30;99.90;;;;;;5013413;28;20406;-85
2021/01/12 00:24:42;;;;;;;12.50;8.63;;;5.30;99.90;;;;;;4995784;28;20186;-85
2021/01/12 00:27:08;;;;;;;15.20;10.40;;;5.40;99.90;;;;;;5013761;28;20766;-85
2021/01/12 00:29:34;;;;;;;14.57;11.07;;;5.40;99.90;;;;;;5012458;28;20441;-84
2021/01/12 00:32:00;;;;;;;15.77;11.23;;;5.40;99.90;;;;;;5013449;28;20370;-85
2021/01/12 00:34:26;;;;;;;15.97;11.20;;;5.40;99.90;;;;;;5012382;28;20506;-85
2021/01/12 00:36:52;;;;;;;13.60;10.47;;;5.50;99.90;;;;;;5011869;28;20245;-85
2021/01/12 00:39:19;;;;;;;14.80;10.07;;;5.40;99.90;;;;;;5012282;28;20167;-85
2021/01/12 00:41:47;;;;;;;13.37;10.40;;;5.50;99.90;;;;;;5013530;28;20817;-84
2021/01/12 00:44:12;;;;;;;10.57;8.40;;;5.50;99.90;;;;;;5012496;28;20425;-85
2021/01/12 00:46:43;;;;;;;13.33;9.20;;;5.50;99.90;;;;;;5013686;28;20418;-85
2021/01/12 00:49:08;;;;;;;11.53;8.57;;;5.50;99.90;;;;;;5013634;28;20210;-84
2021/01/12 00:51:38;;;;;;;11.37;8.57;;;5.60;99.90;;;;;;5012022;28;20461;-84
2021/01/12 00:54:08;;;;;;;15.00;9.60;;;5.50;99.90;;;;;;5013548;28;20185;-85
2021/01/12 00:56:34;;;;;;;17.13;11.20;;;5.60;99.90;;;;;;5013019;28;20465;-85
2021/01/12 00:58:59;;;;;;;15.67;11.03;;;5.60;99.90;;;;;;5011966;28;20524;-84
2021/01/12 01:01:25;;;;;;;14.10;9.07;;;5.60;99.90;;;;;;5013366;28;20233;-85
2021/01/12 01:03:51;;;;;;;9.60;6.50;;;5.60;99.90;;;;;;5013410;28;20167;-85
2021/01/12 01:06:16;;;;;;;12.63;8.30;;;5.70;99.90;;;;;;5012992;28;21381;-85
2021/01/12 01:08:42;;;;;;;15.80;11.20;;;5.70;99.90;;;;;;5013338;28;20205;-85
2021/01/12 01:11:08;;;;;;;16.27;11.17;;;5.80;99.90;;;;;;5013293;28;20620;-85
2021/01/12 01:13:33;;;;;;;16.63;11.30;;;5.80;99.90;;;;;;5012073;28;20186;-85
2021/01/12 01:15:59;;;;;;;14.87;9.90;;;5.80;99.90;;;;;;5013305;28;20417;-84
2021/01/12 01:18:25;;;;;;;12.30;9.17;;;5.80;99.90;;;;;;4995637;28;20627;-85
2021/01/12 01:20:51;;;;;;;12.23;9.40;;;5.90;99.90;;;;;;4995539;28;20186;-85
2021/01/12 01:23:16;;;;;;;12.50;8.97;;;5.90;99.90;;;;;;4995199;28;20760;-85
2021/01/12 01:25:42;;;;;;;10.27;6.67;;;5.90;99.90;;;;;;4995543;28;20221;-86
2021/01/12 01:28:08;;;;;;;11.77;8.40;;;5.90;99.90;;;;;;4995080;28;20433;-85
2021/01/12 01:30:34;;;;;;;12.50;7.87;;;6.00;99.90;;;;;;5009815;28;20207;-85
2021/01/12 01:32:59;;;;;;;9.50;6.50;;;6.00;99.90;;;;;;5008719;28;20607;-84
2021/01/12 01:35:25;;;;;;;10.80;7.70;;;6.00;99.90;;;;;;4989357;28;20186;-85
2021/01/12 01:37:51;;;;;;;8.97;6.90;;;6.00;99.90;;;;;;5005887;28;20571;-85
2021/01/12 01:40:20;;;;;;;10.40;7.00;;;6.10;99.90;;;;;;5007393;28;20233;-85
2021/01/12 01:42:48;;;;;;;9.47;6.63;;;6.10;99.90;;;;;;5005953;28;20438;-85
2021/01/12 01:45:14;;;;;;;10.70;7.30;;;6.10;99.90;;;;;;5013545;28;20421;-85
2021/01/12 01:47:43;;;;;;;11.67;8.03;;;6.10;99.90;;;;;;4983430;28;20852;-85
2021/01/12 01:50:14;;;;;;;9.60;7.70;;;6.10;99.90;;;;;;5005946;28;20423;-85
2021/01/12 01:52:43;;;;;;;12.63;8.00;;;6.20;99.90;;;;;;5010464;28;20425;-84
2021/01/12 01:55:09;;;;;;;10.47;6.67;;;6.20;99.90;;;;;;5015455;28;20492;-86
2021/01/12 01:57:34;;;;;;;8.27;6.90;;;6.20;99.90;;;;;;5004728;28;20461;-85
2021/01/12 02:00:02;;;;;;;9.03;7.17;;;6.20;99.90;;;;;;4986616;28;20794;-85
2021/01/12 02:02:28;;;;;;;10.43;7.57;;;6.30;99.90;;;;;;5005806;28;20182;-85
2021/01/12 02:05:01;;;;;;;9.60;7.87;;;6.20;99.90;;;;;;5005415;28;20525;-85
2021/01/12 02:07:28;;;;;;;10.60;7.63;;;6.20;99.90;;;;;;4996670;28;20191;-85
2021/01/12 02:09:54;;;;;;;10.83;6.90;;;6.20;99.90;;;;;;5003222;28;20418;-85
2021/01/12 02:12:27;;;;;;;10.57;8.00;;;6.20;99.90;;;;;;5007260;28;20401;-85
2021/01/12 02:14:54;;;;;;;9.50;6.70;;;6.20;99.90;;;;;;5014834;28;20479;-85
2021/01/12 02:17:20;;;;;;;10.83;7.50;;;6.20;99.90;;;;;;5005302;28;20458;-85
2021/01/12 02:19:46;;;;;;;8.70;6.50;;;6.20;99.90;;;;;;4988312;28;20431;-85
2021/01/12 02:22:20;;;;;;;9.70;7.80;;;6.20;99.90;;;;;;5009480;28;20226;-85
2021/01/12 02:24:47;;;;;;;7.47;5.50;;;6.20;99.90;;;;;;5003241;28;20168;-84
2021/01/12 02:27:21;;;;;;;8.83;5.70;;;6.20;99.90;;;;;;5006572;28;20413;-85
2021/01/12 02:29:49;;;;;;;9.77;6.93;;;6.30;99.90;;;;;;4988437;28;20433;-85
2021/01/12 02:32:16;;;;;;;11.77;7.10;;;6.30;99.90;;;;;;5005707;28;20469;-85
2021/01/12 02:34:44;;;;;;;9.97;7.13;;;6.30;99.90;;;;;;4987461;28;20422;-85
2021/01/12 02:37:13;;;;;;;9.77;7.60;;;6.30;99.90;;;;;;5002062;28;20499;-86
2021/01/12 02:39:40;;;;;;;11.03;8.40;;;6.30;99.90;;;;;;5004761;28;20414;-86
2021/01/12 02:42:16;;;;;;;7.93;6.70;;;6.30;99.90;;;;;;4987919;28;20423;-85
2021/01/12 02:44:42;;;;;;;9.00;6.70;;;6.30;99.90;;;;;;5004977;28;21041;-85
2021/01/12 02:47:08;;;;;;;9.70;7.20;;;6.30;99.90;;;;;;5006321;28;20426;-85
2021/01/12 02:49:33;;;;;;;9.67;6.53;;;6.30;99.90;;;;;;4985691;28;20429;-85
2021/01/12 02:51:59;;;;;;;11.37;7.43;;;6.30;99.90;;;;;;4986529;28;20179;-85
2021/01/12 02:54:26;;;;;;;11.40;7.17;;;6.30;99.90;;;;;;5002962;28;20231;-85
2021/01/12 02:56:51;;;;;;;10.87;8.47;;;6.30;99.90;;;;;;4990526;28;20290;-85
2021/01/12 02:59:17;;;;;;;9.60;7.53;;;6.30;99.90;;;;;;4986185;28;20455;-85
2021/01/12 03:01:42;;;;;;;8.90;5.53;;;6.30;99.90;;;;;;5004293;28;20202;-87
2021/01/12 03:04:08;;;;;;;13.07;7.50;;;6.30;99.90;;;;;;5005313;28;20179;-86
2021/01/12 03:06:33;;;;;;;7.97;5.70;;;6.30;99.90;;;;;;4988480;28;20222;-86
2021/01/12 03:08:59;;;;;;;9.83;7.27;;;6.40;99.90;;;;;;4986346;28;20262;-85
2021/01/12 03:11:25;;;;;;;10.07;7.33;;;6.30;99.90;;;;;;5003969;28;20627;-84
2021/01/12 03:13:50;;;;;;;10.37;8.23;;;6.40;99.90;;;;;;5002033;28;20175;-84
2021/01/12 03:16:16;;;;;;;7.70;5.13;;;6.40;99.90;;;;;;4986264;28;20198;-84
2021/01/12 03:18:41;;;;;;;7.20;5.57;;;6.40;99.90;;;;;;5004679;28;20211;-84
2021/01/12 03:21:07;;;;;;;9.13;5.90;;;6.40;99.90;;;;;;4984754;28;20171;-85
2021/01/12 03:23:33;;;;;;;7.80;5.67;;;6.40;99.90;;;;;;4985830;28;20175;-84
2021/01/12 03:25:58;;;;;;;6.53;4.90;;;6.40;99.90;;;;;;4987178;28;20190;-85
2021/01/12 03:28:24;;;;;;;9.60;5.67;;;6.40;99.90;;;;;;4985288;28;20678;-85
2021/01/12 03:30:49;;;;;;;9.50;6.40;;;6.50;99.90;;;;;;4980121;28;20542;-85
2021/01/12 03:33:15;;;;;;;8.90;5.57;;;6.50;99.90;;;;;;4981944;28;20227;-84
2021/01/12 03:35:40;;;;;;;8.40;6.50;;;6.50;99.90;;;;;;4995131;28;20168;-85
2021/01/12 03:38:06;;;;;;;7.43;5.50;;;6.50;99.90;;;;;;4993700;28;20723;-84
2021/01/12 03:40:32;;;;;;;9.47;6.87;;;6.50;99.90;;;;;;4993750;28;20562;-85
2021/01/12 03:42:57;;;;;;;9.70;6.20;;;6.60;99.90;;;;;;4994068;28;20566;-86
2021/01/12 03:45:23;;;;;;;9.07;6.03;;;6.60;99.90;;;;;;4993844;28;20180;-86
2021/01/12 03:47:48;;;;;;;12.20;7.07;;;6.60;99.90;;;;;;4993599;28;20183;-86
2021/01/12 03:50:15;;;;;;;9.30;5.50;;;6.60;99.90;;;;;;4994942;28;20172;-85
2021/01/12 03:52:40;;;;;;;9.80;6.33;;;6.60;99.90;;;;;;4994126;28;20250;-85
2021/01/12 03:55:07;;;;;;;6.20;4.63;;;6.60;99.90;;;;;;5009963;28;20826;-86
2021/01/12 03:57:32;;;;;;;9.43;6.23;;;6.50;99.90;;;;;;4994669;28;20217;-86
2021/01/12 03:59:58;;;;;;;8.53;5.87;;;6.50;99.90;;;;;;4993530;28;20449;-85
2021/01/12 04:02:23;;;;;;;8.03;5.70;;;6.50;99.90;;;;;;4994809;28;20274;-85
2021/01/12 04:04:49;;;;;;;11.73;6.33;;;6.50;99.90;;;;;;4993539;28;20182;-85
2021/01/12 04:07:15;;;;;;;8.37;6.07;;;6.50;99.90;;;;;;4993056;28;20262;-86
2021/01/12 04:09:40;;;;;;;6.10;4.20;;;6.60;99.90;;;;;;4994586;28;20174;-85
2021/01/12 04:12:06;;;;;;;7.33;5.60;;;6.50;99.90;;;;;;4994476;28;20175;-85
2021/01/12 04:14:32;;;;;;;7.63;5.67;;;6.50;99.90;;;;;;4994534;28;20221;-85
2021/01/12 04:16:57;;;;;;;8.00;5.73;;;6.60;99.90;;;;;;4994402;28;20455;-85
2021/01/12 04:19:23;;;;;;;8.90;6.30;;;6.60;99.90;;;;;;4994450;28;20180;-85
2021/01/12 04:21:48;;;;;;;7.60;5.23;;;6.60;99.90;;;;;;4992834;28;20175;-85
2021/01/12 04:24:14;;;;;;;6.97;4.63;;;6.60;99.90;;;;;;4994315;28;20250;-85
2021/01/12 04:26:40;;;;;;;9.43;6.37;;;6.60;99.90;;;;;;4993046;28;20175;-85
2021/01/12 04:29:05;;;;;;;10.10;5.13;;;6.70;99.90;;;;;;4992959;28;20259;-85
2021/01/12 04:31:31;;;;;;;7.43;5.10;;;6.60;99.90;;;;;;4996196;28;20171;-85
2021/01/12 04:33:57;;;;;;;7.60;4.37;;;6.70;99.90;;;;;;5013938;28;20167;-85
2021/01/12 04:36:23;;;;;;;8.10;4.40;;;6.70;99.90;;;;;;5013402;28;20410;-85
2021/01/12 04:38:48;;;;;;;4.77;3.57;;;6.70;99.90;;;;;;4995986;28;20186;-84
2021/01/12 04:41:15;;;;;;;6.70;4.50;;;6.70;99.90;;;;;;5013520;28;20183;-84
2021/01/12 04:43:41;;;;;;;5.40;4.10;;;6.70;99.90;;;;;;5013649;28;20517;-84
2021/01/12 04:46:06;;;;;;;6.27;4.93;;;6.70;99.90;;;;;;5013635;28;20497;-85
2021/01/12 04:48:32;;;;;;;6.73;4.27;;;6.70;99.90;;;;;;5013686;28;20166;-84
2021/01/12 04:51:07;;;;;;;6.77;4.63;;;6.80;99.90;;;;;;4995411;28;20265;-85
2021/01/12 04:53:46;;;;;;;5.53;4.10;;;6.80;99.90;;;;;;4995922;28;20182;-85
2021/01/12 04:56:16;;;;;;;6.10;3.90;;;6.80;99.90;;;;;;5013605;28;20398;-85
2021/01/12 04:58:43;;;;;;;5.93;4.57;;;6.80;99.90;;;;;;5013161;28;20470;-85
2021/01/12 05:01:17;;;;;;;6.30;4.30;;;6.70;99.90;;;;;;5013440;28;20467;-85
2021/01/12 05:03:44;;;;;;;6.23;4.40;;;6.80;99.90;;;;;;5012600;28;20418;-85
2021/01/12 05:06:14;;;;;;;6.27;4.67;;;6.80;99.90;;;;;;4995193;28;20973;-85
2021/01/12 05:08:44;;;;;;;4.43;3.70;;;6.80;99.90;;;;;;4995843;28;20426;-85
2021/01/12 05:11:14;;;;;;;7.17;4.57;;;6.80;99.90;;;;;;4995733;28;20888;-85
2021/01/12 05:13:44;;;;;;;6.20;4.50;;;6.90;99.90;;;;;;5013286;28;20418;-85
2021/01/12 05:16:11;;;;;;;5.93;4.90;;;6.90;99.90;;;;;;5013219;28;20412;-85
2021/01/12 05:18:39;;;;;;;6.00;4.57;;;6.90;99.90;;;;;;5013129;28;20469;-86
2021/01/12 05:21:06;;;;;;;6.87;5.30;;;6.90;99.90;;;;;;4995199;28;20453;-85
2021/01/12 05:23:49;;;;;;;8.93;4.33;;;6.90;99.90;;;;;;4995579;28;20476;-86
2021/01/12 05:26:18;;;;;;;7.37;5.30;;;7.00;99.90;;;;;;4995465;28;20918;-86
2021/01/12 05:28:44;;;;;;;7.80;5.57;;;7.00;99.90;;;;;;5013128;28;20548;-86
2021/01/12 05:31:14;;;;;;;7.10;5.17;;;7.00;99.90;;;;;;5013117;28;20421;-86
2021/01/12 05:33:41;;;;;;;8.80;5.43;;;7.00;99.90;;;;;;4995137;28;20529;-85
2021/01/12 05:36:09;;;;;;;5.60;4.30;;;7.00;99.90;;;;;;5012721;28;20417;-86
2021/01/12 05:38:35;;;;;;;2.77;1.90;;;7.00;99.90;;;;;;5012944;28;20469;-86
2021/01/12 05:41:02;;;;;;;2.30;1.10;;;6.90;99.90;;;;;;5013144;28;20413;-86
2021/01/12 05:43:46;;;;;;;3.20;0.93;;;6.90;99.90;;;;;;5012977;28;20417;-85
2021/01/12 05:46:15;;;;;;;2.50;0.73;;;6.90;99.90;;;;;;5011666;28;20413;-85
2021/01/12 05:48:42;;;;;;;1.23;0.63;;;6.80;99.90;;;;;;4995255;28;20416;-85
2021/01/12 05:51:11;;;;;;;1.17;0.43;;;6.80;99.90;;;;;;5012718;28;20897;-85
2021/01/12 05:53:45;;;;;;;1.23;0.40;;;6.70;99.90;;;;;;5012234;28;20418;-85
2021/01/12 05:56:31;;;;;;;1.23;0.83;;;6.70;99.90;;;;;;5012248;28;20413;-84
2021/01/12 05:58:58;;;;;;;1.40;0.30;;;6.60;99.90;;;;;;5012883;28;20517;-85
2021/01/12 06:01:47;;;;;;;2.27;1.20;;;6.60;99.90;;;;;;5012768;28;20410;-85
2021/01/12 06:04:14;;;;;;;2.87;0.37;;;6.50;99.90;;;;;;4983753;28;20433;-85
2021/01/12 06:06:42;;;;;;;2.70;0.70;;;6.50;99.90;;;;;;4994687;28;20478;-85
2021/01/12 06:09:10;;;;;;;1.00;0.50;;;6.50;99.90;;;;;;4995027;28;20426;-86
2021/01/12 06:11:36;;;;;;;2.13;0.40;;;6.60;99.90;;;;;;4994882;28;20472;-85
2021/01/12 06:14:10;;;;;;;5.60;1.57;;;6.60;99.90;;;;;;5012378;28;20775;-85
2021/01/12 06:16:38;;;;;;;2.70;0.90;;;6.60;99.90;;;;;;5015169;28;20779;-86
2021/01/12 06:19:09;;;;;;;2.33;1.10;;;6.60;99.90;;;;;;5015760;28;20496;-86
2021/01/12 06:21:42;;;;;;;2.60;1.30;;;6.60;99.90;;;;;;5014004;28;20930;-85
2021/01/12 06:24:14;;;;;;;4.63;1.10;;;6.60;99.90;;;;;;5014071;28;20942;-85
2021/01/12 06:26:41;;;;;;;1.80;1.27;;;6.60;99.90;;;;;;5014341;28;20774;-86
2021/01/12 06:29:07;;;;;;;1.90;0.97;;;6.60;99.90;;;;;;5014159;28;20505;-85
2021/01/12 06:31:44;;;;;;;4.10;1.17;;;6.60;99.90;;;;;;4997320;28;20525;-85
2021/01/12 06:34:16;;;;;;;3.10;1.00;;;6.50;99.90;;;;;;5003253;28;20462;-85
2021/01/12 06:36:52;;;;;;;2.73;1.03;;;6.50;99.90;;;;;;5007628;28;20422;-85
2021/01/12 06:39:24;;;;;;;1.30;1.03;;;6.50;99.90;;;;;;5012724;28;20435;-85
2021/01/12 06:41:50;;;;;;;0.87;0.20;;;6.40;99.90;;;;;;5014639;28;20445;-85
2021/01/12 06:44:20;;;;;;;0.50;0.23;;;6.30;99.90;;;;;;5014164;28;20891;-86
2021/01/12 06:46:48;;;;;;;1.60;0.70;;;6.10;99.90;;;;;;5015812;28;20410;-85
2021/01/12 06:49:21;;;;;;;4.13;0.20;;;5.90;99.90;;;;;;5014509;28;20422;-84
2021/01/12 06:52:04;;;;;;;1.73;0.20;;;5.80;99.90;;;;;;5014180;28;20425;-85
2021/01/12 06:54:34;;;;;;;0.70;0.23;;;5.60;99.90;;;;;;5014518;28;20421;-85
2021/01/12 06:57:02;;;;;;;1.03;0.30;;;5.40;99.90;;;;;;5014406;28;20468;-85
2021/01/12 06:59:36;;;;;;;0.40;0.20;;;5.40;99.90;;;;;;5015731;28;20472;-85
2021/01/12 07:02:28;;;;;;;1.00;0.20;;;5.40;99.90;;;;;;5015509;28;20492;-85
2021/01/12 07:04:58;;;;;;;0.60;0.37;;;5.30;99.90;;;;;;5004886;28;20445;-84
2021/01/12 07:07:26;;;;;;;0.37;0.20;;;5.10;99.90;;;;;;5014013;28;20533;-84
2021/01/12 07:10:00;;;;;;;2.40;0.50;;;5.00;99.90;;;;;;5015323;28;20501;-84
2021/01/12 07:12:28;;;;;;;2.10;0.33;;;4.80;99.90;;;;;;5014204;28;20438;-84
2021/01/12 07:14:58;;;;;;;1.17;0.33;;;4.80;99.90;;;;;;5015298;28;20409;-84
2021/01/12 07:17:29;;;;;;;1.33;0.20;;;4.80;99.90;;;;;;5015152;28;20496;-84
2021/01/12 07:20:11;;;;;;;1.00;0.40;;;4.70;99.90;;;;;;4997367;28;20422;-84
2021/01/12 07:22:39;;;;;;;0.93;0.30;;;4.70;99.90;;;;;;5013938;28;20418;-84
2021/01/12 07:25:10;;;;;;;2.80;0.73;;;4.70;99.90;;;;;;5015208;28;20444;-83
2021/01/12 07:27:36;;;;;;;2.00;0.30;;;4.70;99.90;;;;;;5014155;28;20406;-85
2021/01/12 07:30:07;;;;;;;1.97;0.37;;;4.80;99.90;;;;;;5015149;28;20414;-85
2021/01/12 07:32:38;;;;;;;3.63;0.53;;;4.80;99.90;;;;;;5014748;28;20811;-85
2021/01/12 07:35:10;;;;;;;1.03;0.20;;;4.90;99.90;;;;;;5014643;28;20911;-85
2021/01/12 07:37:41;;;;;;;2.23;0.50;;;5.00;99.90;;;;;;4997111;28;20597;-86
2021/01/12 07:40:14;;;;;;;0.90;0.30;;;5.00;99.90;;;;;;4997341;28;20429;-86
2021/01/12 07:43:06;;;;;;;0.70;0.20;;;5.00;99.90;;;;;;5014836;28;20414;-86
2021/01/12 07:45:35;;;;;;;2.17;0.30;;;5.10;99.90;;;;;;5011844;28;20454;-85
2021/01/12 07:48:03;;;;;;;0.50;0.20;;;5.00;99.90;;;;;;5014775;28;20418;-86
2021/01/12 07:50:30;;;;;;;1.60;0.40;;;5.10;99.90;;;;;;5013765;28;20422;-86
2021/01/12 07:52:57;;;;;;;3.73;0.50;;;5.10;99.90;;;;;;4996955;28;20926;-85
2021/01/12 07:55:23;;;;;;;0.60;0.20;;;5.20;99.90;;;;;;5014628;28;20421;-85
2021/01/12 07:57:50;;;;;;;2.90;0.30;;;5.20;99.90;;;;;;5014379;28;20480;-86
2021/01/12 08:00:18;;;;;;;3.60;0.20;;;5.30;99.90;;;;;;4997141;28;20434;-86
2021/01/12 08:02:45;;;;;;;1.30;0.40;;;5.30;99.90;;;;;;5014593;28;20406;-86
2021/01/12 08:05:13;;;;;;;2.00;0.30;;;5.40;99.90;;;;;;5014108;28;20403;-86
2021/01/12 08:07:39;;;;;;;1.13;0.30;;;5.40;99.90;;;;;;5014399;28;20464;-86
2021/01/12 08:10:09;;;;;;;1.80;0.40;;;5.40;99.90;;;;;;4996680;28;20418;-86
2021/01/12 08:12:35;;;;;;;1.07;0.20;;;5.40;99.90;;;;;;5014274;28;20175;-85
2021/01/12 08:15:13;;;;;;;1.43;0.30;;;5.50;99.90;;;;;;4996683;28;20418;-85
2021/01/12 08:17:50;;;;;;;1.53;0.30;;;5.50;99.90;;;;;;5014068;28;20505;-85
2021/01/12 08:20:18;;;;;;;4.10;0.70;;;5.50;99.90;;;;;;4996002;28;20461;-85
2021/01/12 08:22:54;;;;;;;2.60;1.03;;;5.50;99.90;;;;;;5014007;28;20437;-86
2021/01/12 08:25:20;;;;;;;1.47;0.77;;;5.50;99.90;;;;;;4996477;28;20414;-86
2021/01/12 08:27:49;;;;;;;5.53;1.23;;;5.50;99.90;;;;;;4996393;28;20430;-86
2021/01/12 08:30:18;;;;;;;1.67;0.40;;;5.60;99.90;;;;;;4996606;28;20416;-86
2021/01/12 08:32:52;;;;;;;2.73;0.50;;;5.60;99.90;;;;;;5013391;28;20535;-85
2021/01/12 08:35:18;;;;;;;1.50;0.50;;;5.60;99.90;;;;;;4991326;28;20940;-86
2021/01/12 08:37:46;;;;;;;1.23;0.40;;;5.50;99.90;;;;;;4995772;28;20469;-86
2021/01/12 08:40:14;;;;;;;3.10;0.90;;;5.50;99.90;;;;;;4996064;28;20934;-87
2021/01/12 08:42:41;;;;;;;0.90;0.30;;;5.50;99.90;;;;;;4996115;28;20433;-86
2021/01/12 08:45:17;;;;;;;2.40;0.67;;;5.50;99.90;;;;;;4996103;28;20426;-86
2021/01/12 08:47:45;;;;;;;4.60;0.40;;;5.50;99.90;;;;;;5013764;28;20451;-85
2021/01/12 08:50:12;;;;;;;4.53;0.50;;;5.50;99.90;;;;;;4995714;28;20426;-86
2021/01/12 08:52:39;;;;;;;11.37;1.03;;;5.50;99.90;;;;;;4995804;28;20426;-86
2021/01/12 08:55:18;;;;;;;1.47;0.93;;;5.60;99.90;;;;;;5013574;28;20418;-86
2021/01/12 08:57:54;;;;;;;2.30;0.30;;;5.70;99.90;;;;;;5013437;28;20476;-87
2021/01/12 09:00:27;;;;;;;6.30;0.50;;;5.60;99.90;;;;;;4995909;28;20421;-86
2021/01/12 09:02:57;;;;;;;2.20;0.50;;;5.70;99.90;;;;;;4995841;28;20422;-85
2021/01/12 09:05:24;;;;;;;1.13;0.50;;;5.70;99.90;;;;;;4995539;28;20446;-86
2021/01/12 09:08:06;;;;;;;3.77;0.70;;;5.70;99.90;;;;;;4995744;28;20429;-85
2021/01/12 09:10:38;;;;;;;5.77;1.23;;;5.70;99.90;;;;;;5013369;28;20463;-86
2021/01/12 09:13:04;;;;;;;2.93;1.00;;;5.80;99.90;;;;;;5013415;28;20465;-85
2021/01/12 09:15:38;;;;;;;3.33;0.93;;;5.80;99.90;;;;;;4995566;28;20406;-85
2021/01/12 09:18:25;;;;;;;5.10;1.47;;;5.80;99.90;;;;;;5013251;28;20263;-86
2021/01/12 09:20:56;;;;;;;6.17;1.60;;;5.90;99.90;;;;;;5012643;28;20508;-85
2021/01/12 09:23:22;;;;;;;4.90;0.73;;;5.90;99.90;;;;;;5013251;28;20418;-84
2021/01/12 09:26:02;;;;;;;3.03;0.97;;;5.80;99.90;;;;;;5013123;28;20945;-84
2021/01/12 09:28:33;;;;;;;2.70;0.40;;;5.80;99.90;;;;;;5013126;28;20911;-84
2021/01/12 09:31:20;;;;;;;2.67;0.50;;;5.70;99.90;;;;;;5013334;28;20436;-84
2021/01/12 09:33:54;;;;;;;5.10;0.63;;;5.70;99.90;;;;;;5013255;28;20430;-84
2021/01/12 09:36:20;;;;;;;3.70;1.17;;;5.80;99.90;;;;;;4995025;28;20414;-84
2021/01/12 09:38:47;;;;;;;4.73;1.80;;;5.80;99.90;;;;;;5013089;28;20472;-84
2021/01/12 09:41:14;;;;;;;9.30;0.67;;;6.00;99.90;;;;;;5012959;28;20418;-84
2021/01/12 09:43:41;;;;;;;3.10;0.43;;;6.00;99.90;;;;;;5013019;28;20424;-85
2021/01/12 09:46:07;;;;;;;4.60;0.63;;;6.00;99.90;;;;;;5013033;28;20407;-85
2021/01/12 09:48:34;;;;;;;2.53;0.60;;;6.00;99.90;;;;;;5012946;28;20976;-84
2021/01/12 09:51:00;;;;;;;4.80;0.63;;;6.00;99.90;;;;;;4997554;28;20428;-84
2021/01/12 09:53:26;;;;;;;5.83;0.57;;;6.00;99.90;;;;;;5016817;28;20413;-84
2021/01/12 09:55:52;;;;;;;2.50;0.50;;;6.00;99.90;;;;;;5015429;28;20476;-84
2021/01/12 09:58:17;;;;;;;5.07;0.43;;;5.90;99.90;;;;;;5015486;28;20469;-84
2021/01/12 10:00:43;;;;;;;6.17;0.90;;;5.90;99.90;;;;;;5016795;28;20536;-83
2021/01/12 10:03:10;;;;;;;2.03;0.53;;;5.90;99.90;;;;;;4998887;28;20181;-85
2021/01/12 10:05:39;;;;;;;2.00;0.70;;;5.80;99.90;;;;;;5016339;28;20164;-84
2021/01/12 10:08:05;;;;;;;1.83;0.60;;;5.70;99.90;;;;;;4998909;28;20426;-84
2021/01/12 10:10:31;;;;;;;4.20;0.73;;;5.70;99.90;;;;;;5016511;28;20772;-83
2021/01/12 10:12:57;;;;;;;3.87;0.70;;;5.80;99.90;;;;;;5016558;28;20778;-84
2021/01/12 10:15:23;;;;;;;6.43;1.00;;;5.90;99.90;;;;;;4998920;28;20516;-84
2021/01/12 10:17:48;;;;;;;2.63;0.50;;;6.50;99.90;;;;;;5016360;28;20698;-84
2021/01/12 10:20:14;;;;;;;1.33;0.20;;;;;;;;;;5014730;28;20177;-84
2021/01/12 10:22:40;;;;;;;2.07;0.40;;;;;;;;;;5010876;28;20176;-85
2021/01/12 10:25:07;;;;;;;3.03;0.50;;;;;;;;;;4990428;28;20423;-85
2021/01/12 10:27:34;;;;;;;0.63;0.20;;;12.50;99.90;;;;;;5003513;28;20763;-85
2021/01/12 10:30:01;;;;;;;3.50;0.30;;;13.40;99.90;;;;;;5006021;28;20406;-85
2021/01/12 10:32:27;;;;;;;1.77;0.20;;;14.70;99.80;;;;;;4987266;28;20464;-85
2021/01/12 10:34:53;;;;;;;1.67;0.50;;;;;;;;;;4988414;28;20429;-85
2021/01/12 10:37:19;;;;;;;1.53;0.43;;;16.60;90.70;;;;;;5006059;28;20262;-85
2021/01/12 10:39:45;;;;;;;2.80;0.30;;;17.00;88.20;;;;;;5010713;28;20460;-85
2021/01/12 10:42:10;;;;;;;1.60;0.23;;;17.70;82.50;;;;;;5003787;28;20253;-86
2021/01/12 10:44:36;;;;;;;2.67;0.60;;;17.70;76.80;;;;;;4987825;28;21083;-85
2021/01/12 10:47:01;;;;;;;1.50;0.50;;;17.10;75.90;;;;;;5005512;28;20175;-85
2021/01/12 10:49:27;;;;;;;2.97;0.40;;;16.90;77.10;;;;;;5006944;28;20177;-85
2021/01/12 10:52:00;;;;;;;1.03;0.20;;;;;;;;;;5003990;28;20235;-84
2021/01/12 10:54:26;;;;;;;2.57;0.43;;;;;;;;;;5004542;28;20525;-84
2021/01/12 10:56:52;;;;;;;5.40;0.57;;;;;;;;;;5002527;28;20801;-85
2021/01/12 10:59:18;;;;;;;0.60;0.20;;;;;;;;;;5009146;28;20512;-85
2021/01/12 11:01:44;;;;;;;3.77;0.53;;;13.70;90.70;;;;;;5014186;28;20804;-85
2021/01/12 11:04:10;;;;;;;4.60;0.53;;;13.90;90.30;;;;;;5014312;28;20512;-85
2021/01/12 11:06:36;;;;;;;2.90;0.30;;;14.10;87.90;;;;;;4997589;28;20186;-85
2021/01/12 11:09:03;;;;;;;1.83;0.40;;;14.00;88.70;;;;;;5014226;28;20174;-85
2021/01/12 11:11:34;;;;;;;1.70;0.40;;;14.80;88.10;;;;;;5005755;28;20435;-85
2021/01/12 11:14:01;;;;;;;6.20;0.60;;;15.30;83.50;;;;;;5003502;28;20466;-85
2021/01/12 11:16:37;;;;;;;4.50;0.20;;;15.30;81.90;;;;;;5001043;28;20516;-84
2021/01/12 11:19:04;;;;;;;2.97;0.53;;;16.20;81.90;;;;;;5006826;28;20430;-85
2021/01/12 11:21:30;;;;;;;1.90;0.20;;;16.90;76.30;;;;;;5002330;28;20443;-85
2021/01/12 11:23:55;;;;;;;3.00;0.40;;;17.10;72.60;;;;;;4985932;28;20436;-85
2021/01/12 11:26:28;;;;;;;2.87;0.77;;;;;;;;;;5001811;28;20177;-84
2021/01/12 11:28:54;;;;;;;5.33;0.53;;;;;;;;;;5004468;28;20169;-84
2021/01/12 11:31:20;;;;;;;2.40;0.50;;;16.60;70.80;;;;;;5003366;28;20406;-84
2021/01/12 11:33:46;;;;;;;4.83;0.60;;;;;;;;;;5001923;28;20425;-84
2021/01/12 11:36:11;;;;;;;3.23;0.57;;;15.90;78.70;;;;;;5004312;28;20232;-84
2021/01/12 11:38:37;;;;;;;4.50;0.40;;;16.30;76.60;;;;;;5002815;28;20575;-84
2021/01/12 11:41:02;;;;;;;3.73;0.50;;;16.60;73.90;;;;;;4999997;28;20186;-84
2021/01/12 11:43:28;;;;;;;2.80;0.37;;;;;;;;;;5001320;28;20213;-84
2021/01/12 11:45:55;;;;;;;3.07;0.70;;;;;;;;;;4986565;28;20182;-84
2021/01/12 11:48:21;;;;;;;3.23;0.60;;;;;;;;;;5002108;28;20399;-84
2021/01/12 11:50:47;;;;;;;4.07;0.40;;;;;;;;;;5003669;28;20413;-84
2021/01/12 11:53:13;;;;;;;4.87;0.80;;;;;;;;;;5001830;28;20412;-84
2021/01/12 11:55:42;;;;;;;1.60;1.03;;;;;;;;;;5003523;28;20582;-84
2021/01/12 11:58:08;;;;;;;9.93;0.93;;;;;;;;;;5003880;28;20515;-84
2021/01/12 12:00:34;;;;;;;3.67;0.77;;;;;;;;;;5002104;28;20411;-84
2021/01/12 12:03:00;;;;;;;1.60;0.40;;;;;;;;;;5003346;28;20424;-84
2021/01/12 12:05:26;;;;;;;2.50;0.30;;;;;;;;;;5003442;28;20419;-83
2021/01/12 12:07:54;;;;;;;2.53;0.60;;;;;;;;;;5003184;28;20446;-83
2021/01/12 12:10:20;;;;;;;2.30;0.83;;;;;;;;;;4972452;28;20481;-84
2021/01/12 12:12:46;;;;;;;5.03;0.60;;;;;;;;;;5003013;28;20433;-84
2021/01/12 12:15:12;;;;;;;6.53;0.40;;;;;;;;;;4986725;28;20417;-84
2021/01/12 12:17:38;;;;;;;2.47;0.40;;;;;;;;;;5002102;28;20483;-84
2021/01/12 12:20:04;;;;;;;3.07;0.40;;;;;;;;;;4986936;28;20920;-84
2021/01/12 12:22:31;;;;;;;3.50;0.60;;;;;;;;;;4986058;28;20440;-84
2021/01/12 12:24:57;;;;;;;3.80;1.33;;;;;;;;;;5001955;28;20418;-82
2021/01/12 12:27:24;;;;;;;1.93;0.30;;;;;;;;;;5001977;28;20420;-83
2021/01/12 12:29:50;;;;;;;2.13;0.67;;;;;;;;;;4986147;28;20429;-83
2021/01/12 12:32:16;;;;;;;4.30;0.33;;;;;;;;;;5001961;28;20456;-84
2021/01/12 12:34:42;;;;;;;4.00;0.80;;;;;;;;;;5004777;28;20420;-83
2021/01/12 12:37:11;;;;;;;3.10;0.40;;;;;;;;;;4983894;28;20466;-83
2021/01/12 12:39:38;;;;;;;1.50;0.57;;;;;;;;;;4984228;28;20423;-83
2021/01/12 12:42:04;;;;;;;2.17;0.30;;;;;;;;;;5001177;28;20776;-86
2021/01/12 12:44:32;;;;;;;2.70;1.20;;;;;;;;;;5006147;28;20891;-84
2021/01/12 12:46:58;;;;;;;2.93;0.20;;;;;;;;;;5000323;28;21007;-86
2021/01/12 12:49:24;;;;;;;1.23;0.30;;;;;;;;;;5003782;28;20492;-84
2021/01/12 12:51:50;;;;;;;1.90;0.40;;;;;;;;;;5006235;28;20419;-85
2021/01/12 12:54:16;;;;;;;3.07;0.60;;;;;;;;;;5001646;28;20415;-85
2021/01/12 12:56:42;;;;;;;1.80;0.40;;;;;;;;;;5002392;28;20767;-86
2021/01/12 12:59:09;;;;;;;1.37;0.50;;;;;;;;;;5003446;28;20529;-84
2021/01/12 13:01:34;;;;;;;2.37;0.57;;;11.70;79.40;;;;;;5002059;28;20413;-85
2021/01/12 13:04:00;;;;;;;1.23;0.57;;;11.50;80.20;;;;;;5001673;28;20433;-86
2021/01/12 13:06:27;;;;;;;2.00;0.53;;;11.40;83.50;;;;;;5001957;28;20884;-86
2021/01/12 13:08:53;;;;;;;3.10;0.30;;;11.70;85.90;;;;;;5003160;28;20950;-85